createdAt,value
2018-03-03T00:00:39.774Z,-1.01
2018-03-03T00:03:10.184Z,-1.06
2018-03-03T00:05:40.116Z,-0.95
2018-03-03T00:08:10.312Z,-1.42
2018-03-03T00:10:40.926Z,-1.60
2018-03-03T00:13:11.001Z,-1.38
2018-03-03T00:15:42.133Z,-1.07
2018-03-03T00:18:12.855Z,-1.20
2018-03-03T00:20:43.498Z,-1.14
2018-03-03T00:23:13.793Z,-1.18
2018-03-03T00:25:44.803Z,-1.28
2018-03-03T00:28:15.502Z,-1.36
2018-03-03T00:30:46.231Z,-1.25
2018-03-03T00:33:17.332Z,-1.51
2018-03-03T00:35:48.097Z,-1.68
2018-03-03T00:38:18.612Z,-1.81
2018-03-03T00:40:49.297Z,-1.74
2018-03-03T00:43:19.668Z,-1.82
2018-03-03T00:45:50.308Z,-1.91
2018-03-03T00:48:20.536Z,-1.95
2018-03-03T00:50:51.372Z,-2.21
2018-03-03T00:53:22.321Z,-2.54
2018-03-03T00:55:52.839Z,-2.87
2018-03-03T00:58:23.480Z,-3.01
2018-03-03T01:00:54.887Z,-2.84
2018-03-03T01:03:25.921Z,-2.50
2018-03-03T01:05:56.689Z,-2.28
2018-03-03T01:08:27.232Z,-2.23
2018-03-03T01:10:57.925Z,-2.24
2018-03-03T01:13:28.752Z,-2.35
2018-03-03T01:15:59.665Z,-2.68
2018-03-03T01:18:30.393Z,-2.68
2018-03-03T01:21:01.402Z,-2.67
2018-03-03T01:23:32.513Z,-2.67
2018-03-03T01:26:02.370Z,-2.78
2018-03-03T01:28:32.509Z,-2.55
2018-03-03T01:31:02.895Z,-2.70
2018-03-03T01:33:33.909Z,-2.63
2018-03-03T01:36:04.602Z,-2.82
2018-03-03T01:38:35.286Z,-2.83
2018-03-03T01:41:05.646Z,-3.24
2018-03-03T01:43:36.298Z,-3.25
2018-03-03T01:46:07.047Z,-3.29
2018-03-03T01:48:37.549Z,-3.11
2018-03-03T01:51:08.844Z,-2.84
2018-03-03T01:53:39.544Z,-2.77
2018-03-03T01:56:10.434Z,-2.87
2018-03-03T01:58:40.796Z,-2.72
2018-03-03T02:01:10.812Z,-2.92
2018-03-03T02:03:41.832Z,-2.73
2018-03-03T02:06:12.580Z,-2.64
2018-03-03T02:08:43.279Z,-2.69
2018-03-03T02:11:14.168Z,-2.79
2018-03-03T02:13:44.896Z,-2.77
2018-03-03T02:16:15.716Z,-2.98
2018-03-03T02:18:46.238Z,-2.93
2018-03-03T02:21:16.512Z,-2.73
2018-03-03T02:23:47.104Z,-2.56
2018-03-03T02:26:17.617Z,-2.58
2018-03-03T02:28:48.140Z,-2.42
2018-03-03T02:31:18.846Z,-2.22
2018-03-03T02:33:49.750Z,-2.17
2018-03-03T02:36:19.956Z,-1.95
2018-03-03T02:38:50.386Z,-1.91
2018-03-03T02:41:20.886Z,-2.01
2018-03-03T02:43:51.778Z,-2.08
2018-03-03T02:46:23.174Z,-2.03
2018-03-03T02:48:54.188Z,-2.05
2018-03-03T02:51:24.780Z,-1.98
2018-03-03T02:53:55.689Z,-1.91
2018-03-03T02:56:26.446Z,-1.93
2018-03-03T02:58:57.185Z,-1.96
2018-03-03T03:01:27.803Z,-1.79
2018-03-03T03:03:58.768Z,-1.72
2018-03-03T03:06:29.169Z,-1.76
2018-03-03T03:09:00.315Z,-1.80
2018-03-03T03:11:31.038Z,-1.77
2018-03-03T03:14:01.409Z,-1.93
2018-03-03T03:16:31.254Z,-1.76
2018-03-03T03:19:01.990Z,-1.57
2018-03-03T03:21:32.679Z,-1.46
2018-03-03T03:24:03.941Z,-1.78
2018-03-03T03:26:34.745Z,-1.92
2018-03-03T03:29:05.489Z,-1.80
2018-03-03T03:31:35.799Z,-2.14
2018-03-03T03:34:06.432Z,-2.25
2018-03-03T03:36:37.922Z,-2.47
2018-03-03T03:39:09.075Z,-2.38
2018-03-03T03:41:39.456Z,-2.12
2018-03-03T03:44:10.355Z,-1.96
2018-03-03T03:46:41.011Z,-2.05
2018-03-03T03:49:11.742Z,-2.23
2018-03-03T03:51:42.278Z,-2.04
2018-03-03T03:54:12.404Z,-1.90
2018-03-03T03:56:44.186Z,-1.71
2018-03-03T03:59:14.493Z,-1.65
2018-03-03T04:01:44.503Z,-1.57
2018-03-03T04:04:15.181Z,-1.77
2018-03-03T04:06:45.659Z,-1.70
2018-03-03T04:09:16.893Z,-1.63
2018-03-03T04:11:46.826Z,-1.62
2018-03-03T04:14:17.352Z,-1.43
2018-03-03T04:16:48.675Z,-1.29
2018-03-03T04:19:19.340Z,-1.21
2018-03-03T04:21:50.355Z,-1.20
2018-03-03T04:24:21.763Z,-1.04
2018-03-03T04:26:51.842Z,-0.89
2018-03-03T04:29:22.554Z,-0.86
2018-03-03T04:31:52.610Z,-0.80
2018-03-03T04:34:23.035Z,-0.79
2018-03-03T04:36:53.654Z,-0.44
2018-03-03T04:39:24.184Z,-0.63
2018-03-03T04:41:54.743Z,-0.89
2018-03-03T04:44:25.639Z,-0.70
2018-03-03T04:46:55.848Z,-0.38
2018-03-03T04:49:26.365Z,-0.37
2018-03-03T04:51:57.598Z,-0.33
2018-03-03T04:54:28.276Z,-0.39
2018-03-03T04:56:58.279Z,-0.44
2018-03-03T04:59:44.979Z,-0.43
2018-03-03T05:02:30.939Z,-0.44
2018-03-03T05:05:07.173Z,-0.44
2018-03-03T05:07:53.358Z,-0.58
2018-03-03T05:10:38.603Z,-0.72
2018-03-03T05:13:15.012Z,-0.54
2018-03-03T05:15:50.257Z,-0.26
2018-03-03T05:18:26.921Z,-0.27
2018-03-03T05:21:03.498Z,-0.36
2018-03-03T05:23:39.780Z,-0.24
2018-03-03T05:26:27.168Z,-0.26
2018-03-03T05:29:03.655Z,-0.08
2018-03-03T05:31:40.331Z,0.14
2018-03-03T05:34:16.855Z,0.52
2018-03-03T05:37:02.920Z,0.79
2018-03-03T05:39:36.556Z,0.83
2018-03-03T05:42:19.509Z,1.03
2018-03-03T05:45:08.153Z,1.19
2018-03-03T05:47:54.760Z,1.12
2018-03-03T05:50:42.393Z,1.08
2018-03-03T05:53:28.991Z,1.23
2018-03-03T05:56:04.338Z,1.53
2018-03-03T05:58:39.584Z,1.44
2018-03-03T06:01:12.976Z,1.50
2018-03-03T06:03:51.397Z,1.53
2018-03-03T06:06:27.034Z,1.89
2018-03-03T06:09:07.700Z,2.17
2018-03-03T06:11:37.627Z,2.27
2018-03-03T06:14:07.534Z,2.22
2018-03-03T06:16:37.339Z,2.47
2018-03-03T06:19:07.060Z,2.84
2018-03-03T06:21:36.785Z,3.10
2018-03-03T06:24:06.607Z,3.24
2018-03-03T06:26:36.335Z,3.33
2018-03-03T06:29:06.056Z,3.13
2018-03-03T06:31:35.812Z,3.11
2018-03-03T06:34:05.627Z,2.94
2018-03-03T06:36:35.540Z,3.07
2018-03-03T06:39:05.474Z,3.10
2018-03-03T06:41:35.473Z,3.29
2018-03-03T06:44:05.506Z,2.99
2018-03-03T06:46:35.258Z,2.87
2018-03-03T06:49:05.012Z,2.57
2018-03-03T06:51:34.923Z,2.42
2018-03-03T06:54:04.820Z,2.45
2018-03-03T06:56:34.648Z,2.39
2018-03-03T06:59:04.467Z,2.53
2018-03-03T07:01:34.274Z,2.67
2018-03-03T07:04:04.104Z,2.43
2018-03-03T07:06:34.104Z,2.38
2018-03-03T07:09:04.018Z,2.36
2018-03-03T07:11:34.549Z,2.32
2018-03-03T07:14:04.365Z,2.14
2018-03-03T07:16:34.283Z,2.33
2018-03-03T07:19:04.088Z,2.60
2018-03-03T07:21:33.900Z,2.58
2018-03-03T07:24:03.723Z,2.86
2018-03-03T07:26:33.523Z,3.23
2018-03-03T07:29:03.343Z,3.57
2018-03-03T07:31:33.251Z,3.96
2018-03-03T07:34:03.065Z,3.92
2018-03-03T07:36:32.878Z,4.09
2018-03-03T07:39:02.694Z,4.79
2018-03-03T07:41:32.474Z,4.97
2018-03-03T07:44:02.312Z,4.81
2018-03-03T07:46:32.125Z,4.91
2018-03-03T07:49:01.944Z,5.46
2018-03-03T07:51:31.750Z,5.37
2018-03-03T07:54:01.561Z,5.41
2018-03-03T07:56:43.156Z,5.69
2018-03-03T07:59:12.965Z,6.19
2018-03-03T08:01:42.781Z,6.94
2018-03-03T08:04:12.589Z,7.96
2018-03-03T08:06:42.503Z,8.79
2018-03-03T08:09:12.256Z,9.31
2018-03-03T08:11:42.135Z,9.39
2018-03-03T08:14:11.939Z,9.60
2018-03-03T08:16:41.753Z,9.73
2018-03-03T08:19:11.568Z,9.37
2018-03-03T08:21:41.379Z,8.33
2018-03-03T08:24:11.133Z,8.12
2018-03-03T08:26:40.804Z,9.28
2018-03-03T08:29:10.616Z,10.03
2018-03-03T08:31:40.362Z,10.24
2018-03-03T08:34:10.062Z,10.03
2018-03-03T08:36:39.837Z,9.57
2018-03-03T08:39:09.558Z,9.43
2018-03-03T08:41:39.375Z,9.65
2018-03-03T08:44:09.095Z,8.25
2018-03-03T08:46:38.795Z,7.67
2018-03-03T08:49:08.604Z,8.34
2018-03-03T08:51:38.517Z,8.83
2018-03-03T08:54:08.326Z,8.35
2018-03-03T08:56:38.139Z,8.41
2018-03-03T08:59:07.951Z,9.11
2018-03-03T09:01:37.765Z,9.79
2018-03-03T09:04:07.573Z,9.80
2018-03-03T09:06:37.344Z,9.81
2018-03-03T09:09:07.200Z,9.45
2018-03-03T09:11:37.012Z,10.28
2018-03-03T09:14:06.931Z,11.07
2018-03-03T09:16:36.848Z,11.43
2018-03-03T09:19:06.653Z,11.52
2018-03-03T09:21:36.472Z,11.85
2018-03-03T09:24:06.195Z,11.60
2018-03-03T09:26:36.103Z,12.32
2018-03-03T09:29:06.007Z,12.35
2018-03-03T09:31:35.828Z,12.88
2018-03-03T09:34:05.836Z,12.96
2018-03-03T09:36:35.656Z,13.22
2018-03-03T09:39:05.665Z,12.56
2018-03-03T09:41:35.442Z,12.93
2018-03-03T09:44:05.291Z,12.86
2018-03-03T09:46:35.107Z,12.32
2018-03-03T09:49:04.915Z,11.75
2018-03-03T09:51:34.734Z,11.80
2018-03-03T09:54:04.544Z,11.22
2018-03-03T09:56:34.453Z,11.24
2018-03-03T09:59:04.145Z,11.72
2018-03-03T10:01:33.986Z,12.40
2018-03-03T10:04:03.636Z,12.98
2018-03-03T10:06:33.400Z,13.57
2018-03-03T10:09:03.194Z,13.28
2018-03-03T10:11:32.965Z,12.76
2018-03-03T10:14:02.738Z,13.22
2018-03-03T10:16:32.485Z,13.57
2018-03-03T10:19:02.210Z,14.08
2018-03-03T10:21:32.670Z,14.59
2018-03-03T10:24:02.492Z,14.99
2018-03-03T10:26:32.203Z,15.14
2018-03-03T10:29:01.978Z,15.02
2018-03-03T10:31:31.795Z,14.70
2018-03-03T10:34:01.605Z,14.53
2018-03-03T10:36:31.345Z,14.35
2018-03-03T10:39:01.167Z,14.12
2018-03-03T10:41:30.960Z,14.31
2018-03-03T10:44:00.742Z,14.70
2018-03-03T10:46:30.502Z,14.35
2018-03-03T10:49:00.280Z,14.40
2018-03-03T10:51:30.030Z,14.48
2018-03-03T10:53:59.814Z,14.16
2018-03-03T10:56:29.551Z,13.36
2018-03-03T10:58:59.296Z,13.35
2018-03-03T11:01:29.019Z,12.88
2018-03-03T11:03:58.795Z,12.76
2018-03-03T11:06:28.552Z,12.40
2018-03-03T11:08:58.246Z,12.58
2018-03-03T11:11:27.974Z,12.77
2018-03-03T11:13:57.745Z,12.99
2018-03-03T11:16:27.473Z,13.91
2018-03-03T11:18:57.218Z,14.64
2018-03-03T11:21:26.947Z,15.21
2018-03-03T11:23:56.661Z,15.60
2018-03-03T11:26:26.419Z,15.69
2018-03-03T11:28:56.127Z,15.57
2018-03-03T11:31:25.844Z,15.35
2018-03-03T11:33:55.600Z,16.38
2018-03-03T11:36:25.329Z,16.91
2018-03-03T11:38:55.099Z,17.64
2018-03-03T11:41:24.819Z,18.41
2018-03-03T11:43:54.551Z,17.69
2018-03-03T11:46:24.311Z,17.40
2018-03-03T11:48:54.048Z,17.21
2018-03-03T11:51:23.743Z,17.37
2018-03-03T11:53:53.516Z,17.48
2018-03-03T11:56:23.239Z,18.03
2018-03-03T11:58:53.006Z,18.61
2018-03-03T12:01:22.720Z,17.87
2018-03-03T12:03:52.483Z,16.21
2018-03-03T12:06:22.351Z,16.82
2018-03-03T12:08:52.072Z,17.43
2018-03-03T12:11:21.809Z,18.15
2018-03-03T12:13:51.648Z,17.64
2018-03-03T12:16:21.399Z,17.47
2018-03-03T12:18:51.251Z,17.82
2018-03-03T12:21:20.986Z,18.67
2018-03-03T12:23:50.726Z,18.33
2018-03-03T12:26:20.509Z,18.80
2018-03-03T12:28:50.248Z,18.75
2018-03-03T12:31:20.025Z,17.68
2018-03-03T12:33:49.764Z,16.55
2018-03-03T12:36:19.506Z,17.31
2018-03-03T12:38:49.276Z,17.88
2018-03-03T12:41:19.080Z,18.43
2018-03-03T12:43:48.925Z,18.70
2018-03-03T12:46:18.645Z,18.97
2018-03-03T12:48:48.338Z,19.24
2018-03-03T12:51:18.146Z,19.72
2018-03-03T12:53:47.878Z,19.85
2018-03-03T12:56:17.586Z,19.71
2018-03-03T12:58:47.392Z,19.50
2018-03-03T13:01:17.148Z,20.09
2018-03-03T13:03:46.928Z,20.00
2018-03-03T13:06:16.637Z,19.60
2018-03-03T13:08:46.349Z,19.32
2018-03-03T13:11:16.147Z,19.16
2018-03-03T13:13:45.849Z,18.69
2018-03-03T13:16:15.579Z,17.94
2018-03-03T13:18:45.338Z,18.03
2018-03-03T13:21:15.080Z,18.44
2018-03-03T13:23:44.856Z,18.75
2018-03-03T13:26:14.668Z,19.13
2018-03-03T13:28:44.374Z,19.17
2018-03-03T13:31:14.164Z,18.76
2018-03-03T13:33:43.891Z,18.71
2018-03-03T13:36:13.638Z,18.91
2018-03-03T13:38:43.368Z,18.82
2018-03-03T13:41:13.116Z,18.36
2018-03-03T13:43:42.884Z,18.52
2018-03-03T13:46:12.577Z,18.61
2018-03-03T13:48:42.329Z,18.39
2018-03-03T13:51:12.168Z,18.73
2018-03-03T13:53:45.230Z,19.06
2018-03-03T13:56:20.728Z,19.25
2018-03-03T13:58:52.510Z,19.30
2018-03-03T14:01:24.263Z,19.46
2018-03-03T14:03:54.633Z,19.52
2018-03-03T14:06:25.140Z,19.55
2018-03-03T14:08:58.191Z,19.84
2018-03-03T14:11:31.239Z,19.33
2018-03-03T14:14:03.528Z,18.83
2018-03-03T14:16:34.128Z,19.05
2018-03-03T14:19:04.623Z,19.33
2018-03-03T14:21:36.459Z,19.67
2018-03-03T14:24:12.865Z,20.23
2018-03-03T14:26:47.198Z,20.32
2018-03-03T14:29:17.619Z,20.28
2018-03-03T14:31:49.661Z,20.10
2018-03-03T14:34:25.558Z,19.99
2018-03-03T14:36:59.516Z,19.84
2018-03-03T14:39:30.763Z,20.03
2018-03-03T14:42:02.269Z,20.14
2018-03-03T14:44:35.571Z,20.69
2018-03-03T14:47:07.925Z,19.82
2018-03-03T14:49:37.806Z,19.09
2018-03-03T14:52:07.602Z,18.53
2018-03-03T14:54:37.376Z,18.72
2018-03-03T14:57:07.217Z,19.08
2018-03-03T14:59:36.999Z,19.24
2018-03-03T15:02:06.877Z,18.82
2018-03-03T15:04:36.686Z,18.40
2018-03-03T15:07:06.444Z,17.84
2018-03-03T15:09:37.144Z,17.69
2018-03-03T15:12:06.911Z,18.10
2018-03-03T15:14:36.840Z,18.24
2018-03-03T15:17:06.633Z,17.68
2018-03-03T15:19:36.440Z,17.46
2018-03-03T15:22:06.278Z,17.42
2018-03-03T15:24:36.140Z,17.52
2018-03-03T15:27:06.293Z,17.18
2018-03-03T15:29:36.071Z,17.43
2018-03-03T15:32:05.873Z,17.40
2018-03-03T15:34:35.751Z,16.66
2018-03-03T15:37:06.065Z,15.95
2018-03-03T15:39:36.434Z,15.02
2018-03-03T15:42:06.837Z,14.56
2018-03-03T15:44:38.174Z,14.32
2018-03-03T15:47:08.476Z,13.78
2018-03-03T15:49:38.551Z,13.39
2018-03-03T15:52:08.888Z,12.89
2018-03-03T15:54:39.122Z,12.46
2018-03-03T15:57:09.361Z,12.38
2018-03-03T15:59:39.598Z,12.30
2018-03-03T16:02:09.921Z,12.09
2018-03-03T16:04:40.182Z,11.57
2018-03-03T16:07:10.480Z,11.35
2018-03-03T16:09:40.301Z,11.25
2018-03-03T16:12:10.200Z,11.04
2018-03-03T16:14:40.014Z,10.48
2018-03-03T16:17:09.737Z,9.78
2018-03-03T16:19:39.549Z,9.74
2018-03-03T16:22:09.387Z,9.68
2018-03-03T16:24:39.200Z,9.74
2018-03-03T16:27:08.895Z,9.72
2018-03-03T16:29:38.724Z,9.52
2018-03-03T16:32:08.518Z,8.55
2018-03-03T16:34:38.296Z,7.51
2018-03-03T16:37:08.181Z,7.31
2018-03-03T16:39:37.964Z,7.54
2018-03-03T16:42:07.936Z,7.49
2018-03-03T16:44:37.784Z,7.36
2018-03-03T16:47:07.562Z,7.26
2018-03-03T16:49:37.365Z,6.71
2018-03-03T16:52:07.125Z,6.39
2018-03-03T16:54:36.919Z,6.37
2018-03-03T16:57:06.750Z,6.38
2018-03-03T16:59:36.506Z,6.25
2018-03-03T17:02:06.330Z,6.02
2018-03-03T17:04:36.088Z,5.73
2018-03-03T17:07:05.801Z,5.54
2018-03-03T17:09:35.592Z,5.33
2018-03-03T17:12:05.401Z,5.51
2018-03-03T17:14:35.233Z,5.51
2018-03-03T17:17:05.071Z,5.61
2018-03-03T17:19:34.858Z,5.71
2018-03-03T17:22:04.835Z,5.75
2018-03-03T17:24:34.620Z,5.56
2018-03-03T17:27:04.351Z,5.39
2018-03-03T17:29:34.135Z,5.59
2018-03-03T17:32:03.936Z,5.55
2018-03-03T17:34:33.746Z,5.49
2018-03-03T17:37:03.466Z,5.39
2018-03-03T17:39:33.207Z,5.36
2018-03-03T17:42:03.102Z,5.15
2018-03-03T17:44:32.838Z,4.95
2018-03-03T17:47:02.510Z,5.09
2018-03-03T17:49:32.306Z,5.18
2018-03-03T17:52:02.114Z,5.11
2018-03-03T17:54:31.923Z,4.75
2018-03-03T17:57:01.650Z,4.59
2018-03-03T17:59:31.447Z,4.68
2018-03-03T18:02:01.264Z,4.66
2018-03-03T18:04:31.053Z,4.49
2018-03-03T18:07:00.810Z,4.52
2018-03-03T18:09:30.522Z,4.70
2018-03-03T18:12:00.282Z,4.88
2018-03-03T18:14:30.085Z,4.99
2018-03-03T18:16:59.798Z,4.85
2018-03-03T18:19:30.486Z,4.98
2018-03-03T18:22:00.326Z,5.02
2018-03-03T18:24:36.931Z,4.84
2018-03-03T18:27:06.760Z,4.35
2018-03-03T18:29:36.677Z,4.18
2018-03-03T18:32:06.409Z,4.24
2018-03-03T18:34:36.176Z,4.28
2018-03-03T18:37:05.948Z,4.01
2018-03-03T18:39:35.701Z,3.73
2018-03-03T18:42:05.485Z,3.65
2018-03-03T18:44:35.243Z,3.58
2018-03-03T18:47:05.059Z,3.36
2018-03-03T18:49:34.812Z,3.70
2018-03-03T18:52:04.657Z,3.93
2018-03-03T18:54:34.513Z,4.22
2018-03-03T18:57:04.256Z,4.31
2018-03-03T18:59:34.004Z,4.16
2018-03-03T19:02:03.797Z,4.31
2018-03-03T19:04:33.534Z,4.36
2018-03-03T19:07:03.284Z,4.50
2018-03-03T19:09:33.125Z,4.54
2018-03-03T19:12:02.979Z,4.38
2018-03-03T19:14:32.814Z,4.04
2018-03-03T19:17:02.494Z,3.76
2018-03-03T19:19:32.239Z,3.74
2018-03-03T19:22:02.065Z,3.92
2018-03-03T19:24:31.843Z,4.12
2018-03-03T19:27:01.623Z,4.23
2018-03-03T19:29:31.370Z,4.07
2018-03-03T19:32:01.096Z,3.93
2018-03-03T19:34:30.912Z,3.75
2018-03-03T19:37:00.622Z,3.74
2018-03-03T19:39:30.356Z,3.91
2018-03-03T19:42:00.167Z,4.08
2018-03-03T19:44:29.909Z,4.20
2018-03-03T19:46:59.653Z,4.11
2018-03-03T19:49:29.450Z,3.84
2018-03-03T19:51:59.342Z,3.90
2018-03-03T19:54:29.122Z,4.12
2018-03-03T19:56:58.884Z,4.37
2018-03-03T19:59:28.649Z,4.38
2018-03-03T20:01:58.401Z,4.08
2018-03-03T20:04:28.328Z,4.02
2018-03-03T20:06:58.071Z,4.23
2018-03-03T20:09:27.768Z,4.45
2018-03-03T20:11:57.579Z,4.58
2018-03-03T20:14:27.377Z,4.73
2018-03-03T20:16:57.144Z,4.73
2018-03-03T20:19:26.916Z,4.74
2018-03-03T20:21:56.865Z,4.68
2018-03-03T20:24:26.639Z,4.76
2018-03-03T20:26:56.362Z,4.79
2018-03-03T20:29:26.192Z,4.84
2018-03-03T20:31:56.060Z,4.55
2018-03-03T20:34:25.876Z,4.51
2018-03-03T20:36:55.588Z,4.45
2018-03-03T20:39:25.385Z,4.26
2018-03-03T20:41:55.182Z,4.18
2018-03-03T20:44:24.949Z,4.13
2018-03-03T20:46:54.701Z,4.05
2018-03-03T20:49:24.470Z,4.10
2018-03-03T20:51:54.179Z,4.13
2018-03-03T20:54:24.041Z,4.29
2018-03-03T20:56:53.759Z,4.11
2018-03-03T20:59:23.453Z,4.10
2018-03-03T21:01:53.309Z,4.27
2018-03-03T21:04:23.108Z,4.38
2018-03-03T21:06:52.806Z,4.45
2018-03-03T21:09:22.577Z,4.60
2018-03-03T21:11:55.030Z,4.77
2018-03-03T21:14:24.869Z,5.01
2018-03-03T21:16:54.596Z,4.92
2018-03-03T21:19:24.329Z,4.90
2018-03-03T21:21:54.195Z,4.94
2018-03-03T21:24:23.973Z,4.42
2018-03-03T21:26:53.666Z,4.53
2018-03-03T21:29:23.467Z,4.42
2018-03-03T21:31:53.217Z,4.22
2018-03-03T21:34:22.996Z,4.23
2018-03-03T21:36:52.740Z,4.18
2018-03-03T21:39:22.452Z,4.41
2018-03-03T21:41:52.238Z,4.56
2018-03-03T21:44:22.156Z,4.62
2018-03-03T21:46:51.968Z,4.68
2018-03-03T21:49:21.688Z,4.69
2018-03-03T21:51:51.460Z,4.72
2018-03-03T21:54:21.267Z,4.76
2018-03-03T21:56:50.983Z,4.74
2018-03-03T21:59:20.800Z,4.91
2018-03-03T22:01:50.596Z,4.96
2018-03-03T22:04:20.334Z,4.83
2018-03-03T22:06:50.078Z,4.92
2018-03-03T22:09:19.873Z,4.92
2018-03-03T22:11:49.622Z,4.91
2018-03-03T22:14:19.420Z,-133.90
2018-03-03T22:16:49.144Z,-133.90
2018-03-03T22:19:18.914Z,-133.90
2018-03-03T22:21:48.707Z,-133.90
2018-03-03T22:24:18.516Z,-133.90
2018-03-03T22:26:48.350Z,-133.90
2018-03-03T22:29:18.090Z,-133.90
2018-03-03T22:31:47.870Z,-133.90
2018-03-03T22:34:17.749Z,-133.90
2018-03-03T22:36:47.499Z,-133.90
2018-03-03T22:39:17.296Z,-133.90
2018-03-03T22:41:47.085Z,-133.90
2018-03-03T22:44:16.886Z,-133.90
2018-03-03T22:46:46.606Z,-133.90
2018-03-03T22:49:16.336Z,-133.90
2018-03-03T22:51:46.217Z,-133.90
2018-03-03T22:54:16.008Z,-133.90
2018-03-03T22:56:45.791Z,-133.90
2018-03-03T22:59:15.525Z,-133.90
2018-03-03T23:01:45.373Z,-133.90
2018-03-03T23:04:15.243Z,-133.90
2018-03-03T23:06:44.934Z,-133.90
2018-03-03T23:09:14.784Z,-133.90
2018-03-03T23:11:44.552Z,-133.90
2018-03-03T23:14:14.296Z,-133.90
2018-03-03T23:16:44.056Z,-133.90
2018-03-03T23:19:13.786Z,-133.90
2018-03-03T23:21:43.628Z,-133.90
2018-03-03T23:24:13.450Z,-133.90
2018-03-03T23:26:43.172Z,-133.90
2018-03-03T23:29:13.057Z,-133.90
2018-03-03T23:31:42.854Z,-133.90
2018-03-03T23:34:12.761Z,-133.90
2018-03-03T23:36:42.493Z,-133.90
2018-03-03T23:39:12.227Z,-133.90
2018-03-03T23:41:42.092Z,-133.90
2018-03-03T23:44:11.936Z,-133.90
2018-03-03T23:46:41.834Z,-133.90
2018-03-03T23:49:11.571Z,-133.90
2018-03-03T23:51:41.397Z,-133.90
2018-03-03T23:54:11.189Z,-133.90
2018-03-03T23:56:40.919Z,-133.90
2018-03-03T23:59:10.723Z,-133.90
